sensor_id;sensor_type;location;lat;lon;timestamp;P1;durP1;ratioP1;P2;durP2;ratioP2
48911;SDS011;34722;52.108;5.044;2023-10-31T00:00:16;45.00;;;15.25;;
48911;SDS011;34722;52.108;5.044;2023-10-31T00:02:42;43.05;;;15.13;;
48911;SDS011;34722;52.108;5.044;2023-10-31T00:05:08;48.25;;;15.95;;
48911;SDS011;34722;52.108;5.044;2023-10-31T00:07:33;47.70;;;16.25;;
48911;SDS011;34722;52.108;5.044;2023-10-31T00:09:59;50.03;;;17.00;;
48911;SDS011;34722;52.108;5.044;2023-10-31T00:12:25;48.92;;;17.55;;
48911;SDS011;34722;52.108;5.044;2023-10-31T00:14:51;37.15;;;15.90;;
48911;SDS011;34722;52.108;5.044;2023-10-31T00:17:17;44.53;;;15.77;;
48911;SDS011;34722;52.108;5.044;2023-10-31T00:19:42;44.28;;;15.45;;
48911;SDS011;34722;52.108;5.044;2023-10-31T00:22:09;47.88;;;16.08;;
48911;SDS011;34722;52.108;5.044;2023-10-31T00:24:35;38.03;;;14.52;;
48911;SDS011;34722;52.108;5.044;2023-10-31T00:27:00;36.10;;;16.02;;
48911;SDS011;34722;52.108;5.044;2023-10-31T00:29:26;36.53;;;14.82;;
48911;SDS011;34722;52.108;5.044;2023-10-31T00:31:52;40.40;;;13.73;;
48911;SDS011;34722;52.108;5.044;2023-10-31T00:34:17;34.70;;;12.57;;
48911;SDS011;34722;52.108;5.044;2023-10-31T00:36:43;28.80;;;11.30;;
48911;SDS011;34722;52.108;5.044;2023-10-31T00:39:08;27.45;;;10.50;;
48911;SDS011;34722;52.108;5.044;2023-10-31T00:41:34;25.65;;;9.98;;
48911;SDS011;34722;52.108;5.044;2023-10-31T00:44:00;27.00;;;9.65;;
48911;SDS011;34722;52.108;5.044;2023-10-31T00:46:25;22.95;;;8.98;;
48911;SDS011;34722;52.108;5.044;2023-10-31T00:48:51;21.08;;;7.63;;
48911;SDS011;34722;52.108;5.044;2023-10-31T00:51:17;21.13;;;6.80;;
48911;SDS011;34722;52.108;5.044;2023-10-31T00:53:42;13.23;;;5.93;;
48911;SDS011;34722;52.108;5.044;2023-10-31T00:56:08;9.80;;;5.05;;
48911;SDS011;34722;52.108;5.044;2023-10-31T00:58:33;12.07;;;4.32;;
48911;SDS011;34722;52.108;5.044;2023-10-31T01:00:59;9.43;;;4.40;;
48911;SDS011;34722;52.108;5.044;2023-10-31T01:03:25;12.60;;;4.75;;
48911;SDS011;34722;52.108;5.044;2023-10-31T01:05:50;17.60;;;6.80;;
48911;SDS011;34722;52.108;5.044;2023-10-31T01:08:16;17.27;;;6.90;;
48911;SDS011;34722;52.108;5.044;2023-10-31T01:10:41;26.33;;;8.18;;
48911;SDS011;34722;52.108;5.044;2023-10-31T01:13:07;32.80;;;10.77;;
48911;SDS011;34722;52.108;5.044;2023-10-31T01:15:33;30.63;;;10.98;;
48911;SDS011;34722;52.108;5.044;2023-10-31T01:17:58;33.28;;;12.00;;
48911;SDS011;34722;52.108;5.044;2023-10-31T01:20:24;41.67;;;14.52;;
48911;SDS011;34722;52.108;5.044;2023-10-31T01:22:49;52.25;;;16.55;;
48911;SDS011;34722;52.108;5.044;2023-10-31T01:25:15;46.22;;;17.73;;
48911;SDS011;34722;52.108;5.044;2023-10-31T01:27:41;62.13;;;20.98;;
48911;SDS011;34722;52.108;5.044;2023-10-31T01:30:07;52.15;;;20.38;;
48911;SDS011;34722;52.108;5.044;2023-10-31T01:32:33;49.70;;;21.50;;
48911;SDS011;34722;52.108;5.044;2023-10-31T01:34:59;54.70;;;22.08;;
48911;SDS011;34722;52.108;5.044;2023-10-31T01:37:24;64.10;;;25.67;;
48911;SDS011;34722;52.108;5.044;2023-10-31T01:39:50;60.80;;;23.95;;
48911;SDS011;34722;52.108;5.044;2023-10-31T01:42:21;65.38;;;23.17;;
48911;SDS011;34722;52.108;5.044;2023-10-31T01:44:47;60.95;;;22.02;;
48911;SDS011;34722;52.108;5.044;2023-10-31T01:47:13;62.90;;;23.35;;
48911;SDS011;34722;52.108;5.044;2023-10-31T01:49:42;55.17;;;19.30;;
48911;SDS011;34722;52.108;5.044;2023-10-31T01:52:08;44.75;;;19.00;;
48911;SDS011;34722;52.108;5.044;2023-10-31T01:54:33;43.13;;;17.27;;
48911;SDS011;34722;52.108;5.044;2023-10-31T01:57:00;36.67;;;15.50;;
48911;SDS011;34722;52.108;5.044;2023-10-31T01:59:27;32.00;;;15.63;;
48911;SDS011;34722;52.108;5.044;2023-10-31T02:01:54;34.53;;;15.15;;
48911;SDS011;34722;52.108;5.044;2023-10-31T02:04:21;38.75;;;15.88;;
48911;SDS011;34722;52.108;5.044;2023-10-31T02:06:47;32.67;;;15.40;;
48911;SDS011;34722;52.108;5.044;2023-10-31T02:09:12;29.77;;;14.45;;
48911;SDS011;34722;52.108;5.044;2023-10-31T02:11:38;34.60;;;14.73;;
48911;SDS011;34722;52.108;5.044;2023-10-31T02:14:03;33.88;;;15.30;;
48911;SDS011;34722;52.108;5.044;2023-10-31T02:16:29;36.53;;;14.80;;
48911;SDS011;34722;52.108;5.044;2023-10-31T02:18:54;39.53;;;14.77;;
48911;SDS011;34722;52.108;5.044;2023-10-31T02:21:20;30.73;;;13.88;;
48911;SDS011;34722;52.108;5.044;2023-10-31T02:24:04;37.03;;;15.43;;
48911;SDS011;34722;52.108;5.044;2023-10-31T02:26:34;39.90;;;13.90;;
48911;SDS011;34722;52.108;5.044;2023-10-31T02:29:00;41.08;;;14.07;;
48911;SDS011;34722;52.108;5.044;2023-10-31T02:31:26;33.97;;;13.90;;
48911;SDS011;34722;52.108;5.044;2023-10-31T02:33:53;40.17;;;13.95;;
48911;SDS011;34722;52.108;5.044;2023-10-31T02:36:18;32.03;;;12.13;;
48911;SDS011;34722;52.108;5.044;2023-10-31T02:38:44;30.73;;;10.90;;
48911;SDS011;34722;52.108;5.044;2023-10-31T02:41:10;27.17;;;9.73;;
48911;SDS011;34722;52.108;5.044;2023-10-31T02:43:37;28.40;;;9.63;;
48911;SDS011;34722;52.108;5.044;2023-10-31T02:46:03;19.75;;;7.47;;
48911;SDS011;34722;52.108;5.044;2023-10-31T02:48:29;20.35;;;5.53;;
48911;SDS011;34722;52.108;5.044;2023-10-31T02:50:56;15.43;;;4.95;;
48911;SDS011;34722;52.108;5.044;2023-10-31T02:53:23;13.00;;;4.03;;
48911;SDS011;34722;52.108;5.044;2023-10-31T02:55:48;9.27;;;3.00;;
48911;SDS011;34722;52.108;5.044;2023-10-31T02:58:14;8.00;;;2.85;;
48911;SDS011;34722;52.108;5.044;2023-10-31T03:00:42;6.28;;;2.53;;
48911;SDS011;34722;52.108;5.044;2023-10-31T03:03:08;6.78;;;2.55;;
48911;SDS011;34722;52.108;5.044;2023-10-31T03:05:34;3.97;;;1.98;;
48911;SDS011;34722;52.108;5.044;2023-10-31T03:07:59;12.93;;;2.13;;
48911;SDS011;34722;52.108;5.044;2023-10-31T03:10:25;5.75;;;2.03;;
48911;SDS011;34722;52.108;5.044;2023-10-31T03:12:51;8.95;;;2.10;;
48911;SDS011;34722;52.108;5.044;2023-10-31T03:15:17;9.45;;;2.25;;
48911;SDS011;34722;52.108;5.044;2023-10-31T03:17:42;8.85;;;2.10;;
48911;SDS011;34722;52.108;5.044;2023-10-31T03:20:08;18.08;;;4.00;;
48911;SDS011;34722;52.108;5.044;2023-10-31T03:22:34;4.72;;;2.10;;
48911;SDS011;34722;52.108;5.044;2023-10-31T03:25:00;7.70;;;1.98;;
48911;SDS011;34722;52.108;5.044;2023-10-31T03:27:26;7.90;;;2.28;;
48911;SDS011;34722;52.108;5.044;2023-10-31T03:29:51;5.88;;;2.47;;
48911;SDS011;34722;52.108;5.044;2023-10-31T03:32:17;6.28;;;2.70;;
48911;SDS011;34722;52.108;5.044;2023-10-31T03:34:42;8.20;;;3.00;;
48911;SDS011;34722;52.108;5.044;2023-10-31T03:37:08;15.63;;;3.20;;
48911;SDS011;34722;52.108;5.044;2023-10-31T03:39:34;12.10;;;4.03;;
48911;SDS011;34722;52.108;5.044;2023-10-31T03:41:59;12.90;;;3.97;;
48911;SDS011;34722;52.108;5.044;2023-10-31T03:44:25;10.80;;;4.70;;
48911;SDS011;34722;52.108;5.044;2023-10-31T03:46:51;8.68;;;3.63;;
48911;SDS011;34722;52.108;5.044;2023-10-31T03:49:16;8.73;;;3.80;;
48911;SDS011;34722;52.108;5.044;2023-10-31T03:51:42;6.10;;;2.80;;
48911;SDS011;34722;52.108;5.044;2023-10-31T03:54:07;7.60;;;2.80;;
48911;SDS011;34722;52.108;5.044;2023-10-31T03:56:40;6.82;;;2.78;;
48911;SDS011;34722;52.108;5.044;2023-10-31T03:59:06;5.18;;;2.60;;
48911;SDS011;34722;52.108;5.044;2023-10-31T04:01:31;4.35;;;2.22;;
48911;SDS011;34722;52.108;5.044;2023-10-31T04:03:57;4.95;;;1.98;;
48911;SDS011;34722;52.108;5.044;2023-10-31T04:06:22;2.72;;;1.20;;
48911;SDS011;34722;52.108;5.044;2023-10-31T04:08:48;2.55;;;1.27;;
48911;SDS011;34722;52.108;5.044;2023-10-31T04:11:13;1.17;;;1.08;;
48911;SDS011;34722;52.108;5.044;2023-10-31T04:13:39;1.30;;;0.82;;
48911;SDS011;34722;52.108;5.044;2023-10-31T04:16:05;3.53;;;0.80;;
48911;SDS011;34722;52.108;5.044;2023-10-31T04:18:31;2.35;;;0.88;;
48911;SDS011;34722;52.108;5.044;2023-10-31T04:20:56;2.22;;;0.98;;
48911;SDS011;34722;52.108;5.044;2023-10-31T04:23:22;9.40;;;1.95;;
48911;SDS011;34722;52.108;5.044;2023-10-31T04:25:47;3.58;;;1.20;;
48911;SDS011;34722;52.108;5.044;2023-10-31T04:28:13;1.77;;;0.70;;
48911;SDS011;34722;52.108;5.044;2023-10-31T04:30:39;2.25;;;0.70;;
48911;SDS011;34722;52.108;5.044;2023-10-31T04:33:05;1.73;;;0.90;;
48911;SDS011;34722;52.108;5.044;2023-10-31T04:35:31;4.75;;;1.27;;
48911;SDS011;34722;52.108;5.044;2023-10-31T04:37:56;1.85;;;0.93;;
48911;SDS011;34722;52.108;5.044;2023-10-31T04:40:22;5.28;;;1.02;;
48911;SDS011;34722;52.108;5.044;2023-10-31T04:42:47;3.58;;;1.10;;
48911;SDS011;34722;52.108;5.044;2023-10-31T04:45:13;2.70;;;1.30;;
48911;SDS011;34722;52.108;5.044;2023-10-31T04:47:39;3.75;;;1.65;;
48911;SDS011;34722;52.108;5.044;2023-10-31T04:50:06;5.47;;;1.90;;
48911;SDS011;34722;52.108;5.044;2023-10-31T04:52:32;8.30;;;2.97;;
48911;SDS011;34722;52.108;5.044;2023-10-31T04:54:57;5.88;;;2.80;;
48911;SDS011;34722;52.108;5.044;2023-10-31T04:57:23;15.98;;;4.05;;
48911;SDS011;34722;52.108;5.044;2023-10-31T04:59:49;9.18;;;3.42;;
48911;SDS011;34722;52.108;5.044;2023-10-31T05:02:14;9.80;;;4.28;;
48911;SDS011;34722;52.108;5.044;2023-10-31T05:04:40;12.60;;;5.60;;
48911;SDS011;34722;52.108;5.044;2023-10-31T05:07:06;11.20;;;5.93;;
48911;SDS011;34722;52.108;5.044;2023-10-31T05:09:31;15.55;;;8.18;;
48911;SDS011;34722;52.108;5.044;2023-10-31T05:11:57;11.65;;;8.07;;
48911;SDS011;34722;52.108;5.044;2023-10-31T05:14:22;17.92;;;8.15;;
48911;SDS011;34722;52.108;5.044;2023-10-31T05:16:48;13.93;;;7.65;;
48911;SDS011;34722;52.108;5.044;2023-10-31T05:19:13;14.55;;;7.60;;
48911;SDS011;34722;52.108;5.044;2023-10-31T05:21:39;22.73;;;8.25;;
48911;SDS011;34722;52.108;5.044;2023-10-31T05:24:05;8.88;;;7.20;;
48911;SDS011;34722;52.108;5.044;2023-10-31T05:26:31;13.98;;;8.25;;
48911;SDS011;34722;52.108;5.044;2023-10-31T05:28:57;13.40;;;7.80;;
48911;SDS011;34722;52.108;5.044;2023-10-31T05:31:23;13.77;;;8.95;;
48911;SDS011;34722;52.108;5.044;2023-10-31T05:33:49;12.52;;;8.23;;
48911;SDS011;34722;52.108;5.044;2023-10-31T05:36:20;13.82;;;8.90;;
48911;SDS011;34722;52.108;5.044;2023-10-31T05:38:47;13.90;;;9.60;;
48911;SDS011;34722;52.108;5.044;2023-10-31T05:41:13;21.10;;;11.32;;
48911;SDS011;34722;52.108;5.044;2023-10-31T05:43:39;24.13;;;13.50;;
48911;SDS011;34722;52.108;5.044;2023-10-31T05:46:05;22.45;;;13.60;;
48911;SDS011;34722;52.108;5.044;2023-10-31T05:48:31;25.92;;;16.27;;
48911;SDS011;34722;52.108;5.044;2023-10-31T05:50:57;33.53;;;18.35;;
48911;SDS011;34722;52.108;5.044;2023-10-31T05:53:23;30.48;;;19.52;;
48911;SDS011;34722;52.108;5.044;2023-10-31T05:55:48;33.70;;;19.40;;
48911;SDS011;34722;52.108;5.044;2023-10-31T05:58:14;23.52;;;17.70;;
48911;SDS011;34722;52.108;5.044;2023-10-31T06:00:40;28.65;;;16.73;;
48911;SDS011;34722;52.108;5.044;2023-10-31T06:03:05;23.83;;;15.77;;
48911;SDS011;34722;52.108;5.044;2023-10-31T06:05:31;23.92;;;13.55;;
48911;SDS011;34722;52.108;5.044;2023-10-31T06:07:56;16.98;;;12.32;;
48911;SDS011;34722;52.108;5.044;2023-10-31T06:10:22;13.75;;;10.55;;
48911;SDS011;34722;52.108;5.044;2023-10-31T06:12:48;10.13;;;8.45;;
48911;SDS011;34722;52.108;5.044;2023-10-31T06:15:13;10.25;;;7.32;;
48911;SDS011;34722;52.108;5.044;2023-10-31T06:17:39;8.23;;;5.35;;
48911;SDS011;34722;52.108;5.044;2023-10-31T06:20:06;8.65;;;4.80;;
48911;SDS011;34722;52.108;5.044;2023-10-31T06:22:33;8.63;;;3.92;;
48911;SDS011;34722;52.108;5.044;2023-10-31T06:24:58;4.50;;;3.17;;
48911;SDS011;34722;52.108;5.044;2023-10-31T06:27:24;8.48;;;3.60;;
48911;SDS011;34722;52.108;5.044;2023-10-31T06:29:51;5.93;;;3.42;;
48911;SDS011;34722;52.108;5.044;2023-10-31T06:32:17;5.40;;;3.17;;
48911;SDS011;34722;52.108;5.044;2023-10-31T06:34:42;8.80;;;3.30;;
48911;SDS011;34722;52.108;5.044;2023-10-31T06:37:08;8.65;;;3.08;;
48911;SDS011;34722;52.108;5.044;2023-10-31T06:39:33;10.10;;;3.60;;
48911;SDS011;34722;52.108;5.044;2023-10-31T06:41:59;8.98;;;3.60;;
48911;SDS011;34722;52.108;5.044;2023-10-31T06:44:24;7.47;;;4.20;;
48911;SDS011;34722;52.108;5.044;2023-10-31T06:46:51;6.25;;;3.22;;
48911;SDS011;34722;52.108;5.044;2023-10-31T06:49:17;8.52;;;3.30;;
48911;SDS011;34722;52.108;5.044;2023-10-31T06:51:44;6.45;;;2.80;;
48911;SDS011;34722;52.108;5.044;2023-10-31T06:54:10;6.55;;;3.38;;
48911;SDS011;34722;52.108;5.044;2023-10-31T06:56:35;6.75;;;3.80;;
48911;SDS011;34722;52.108;5.044;2023-10-31T06:59:01;7.95;;;2.85;;
48911;SDS011;34722;52.108;5.044;2023-10-31T07:01:27;7.18;;;2.97;;
48911;SDS011;34722;52.108;5.044;2023-10-31T07:03:52;6.00;;;2.85;;
48911;SDS011;34722;52.108;5.044;2023-10-31T07:06:18;8.60;;;3.00;;
48911;SDS011;34722;52.108;5.044;2023-10-31T07:08:46;8.00;;;2.90;;
48911;SDS011;34722;52.108;5.044;2023-10-31T07:11:23;8.32;;;3.78;;
48911;SDS011;34722;52.108;5.044;2023-10-31T07:13:48;4.70;;;2.50;;
48911;SDS011;34722;52.108;5.044;2023-10-31T07:16:26;6.10;;;2.67;;
48911;SDS011;34722;52.108;5.044;2023-10-31T07:18:52;5.15;;;2.60;;
48911;SDS011;34722;52.108;5.044;2023-10-31T07:21:18;3.80;;;2.75;;
48911;SDS011;34722;52.108;5.044;2023-10-31T07:23:43;3.95;;;2.72;;
48911;SDS011;34722;52.108;5.044;2023-10-31T07:26:09;7.90;;;2.55;;
48911;SDS011;34722;52.108;5.044;2023-10-31T07:28:35;6.45;;;3.22;;
48911;SDS011;34722;52.108;5.044;2023-10-31T07:31:01;5.50;;;2.47;;
48911;SDS011;34722;52.108;5.044;2023-10-31T07:33:27;5.32;;;3.00;;
48911;SDS011;34722;52.108;5.044;2023-10-31T07:35:53;4.63;;;2.95;;
48911;SDS011;34722;52.108;5.044;2023-10-31T07:38:18;5.50;;;3.28;;
48911;SDS011;34722;52.108;5.044;2023-10-31T07:40:44;7.22;;;3.25;;
48911;SDS011;34722;52.108;5.044;2023-10-31T07:43:13;5.13;;;3.00;;
48911;SDS011;34722;52.108;5.044;2023-10-31T07:45:39;5.10;;;3.47;;
48911;SDS011;34722;52.108;5.044;2023-10-31T07:48:05;10.63;;;3.60;;
48911;SDS011;34722;52.108;5.044;2023-10-31T07:50:30;11.98;;;3.42;;
48911;SDS011;34722;52.108;5.044;2023-10-31T07:52:56;7.53;;;3.80;;
48911;SDS011;34722;52.108;5.044;2023-10-31T07:55:22;6.20;;;4.10;;
48911;SDS011;34722;52.108;5.044;2023-10-31T07:57:48;5.18;;;3.65;;
48911;SDS011;34722;52.108;5.044;2023-10-31T08:00:13;7.15;;;3.75;;
48911;SDS011;34722;52.108;5.044;2023-10-31T08:02:39;6.43;;;4.28;;
48911;SDS011;34722;52.108;5.044;2023-10-31T08:05:05;6.55;;;4.13;;
48911;SDS011;34722;52.108;5.044;2023-10-31T08:07:32;7.07;;;4.28;;
48911;SDS011;34722;52.108;5.044;2023-10-31T08:09:57;9.32;;;4.13;;
48911;SDS011;34722;52.108;5.044;2023-10-31T08:12:23;8.85;;;4.75;;
48911;SDS011;34722;52.108;5.044;2023-10-31T08:14:49;7.35;;;4.40;;
48911;SDS011;34722;52.108;5.044;2023-10-31T08:17:15;9.45;;;4.97;;
48911;SDS011;34722;52.108;5.044;2023-10-31T08:19:40;18.65;;;6.30;;
48911;SDS011;34722;52.108;5.044;2023-10-31T08:22:07;11.80;;;5.28;;
48911;SDS011;34722;52.108;5.044;2023-10-31T08:52:55;6.68;;;5.35;;
48911;SDS011;34722;52.108;5.044;2023-10-31T08:55:21;14.18;;;6.03;;
48911;SDS011;34722;52.108;5.044;2023-10-31T08:57:47;8.07;;;5.43;;
48911;SDS011;34722;52.108;5.044;2023-10-31T09:00:19;7.03;;;5.18;;
48911;SDS011;34722;52.108;5.044;2023-10-31T09:02:48;7.75;;;6.57;;
48911;SDS011;34722;52.108;5.044;2023-10-31T09:05:14;11.07;;;5.55;;
48911;SDS011;34722;52.108;5.044;2023-10-31T09:07:39;7.70;;;5.70;;
48911;SDS011;34722;52.108;5.044;2023-10-31T09:10:06;10.65;;;6.22;;
48911;SDS011;34722;52.108;5.044;2023-10-31T09:12:32;8.23;;;5.43;;
48911;SDS011;34722;52.108;5.044;2023-10-31T09:15:01;7.53;;;6.63;;
48911;SDS011;34722;52.108;5.044;2023-10-31T09:17:27;7.57;;;6.38;;
48911;SDS011;34722;52.108;5.044;2023-10-31T10:27:19;12.68;;;6.20;;
48911;SDS011;34722;52.108;5.044;2023-10-31T10:29:58;8.77;;;6.30;;
48911;SDS011;34722;52.108;5.044;2023-10-31T10:32:24;10.27;;;6.40;;
48911;SDS011;34722;52.108;5.044;2023-10-31T10:34:50;9.32;;;6.07;;
48911;SDS011;34722;52.108;5.044;2023-10-31T10:37:16;8.40;;;5.30;;
48911;SDS011;34722;52.108;5.044;2023-10-31T10:39:48;8.77;;;5.45;;
48911;SDS011;34722;52.108;5.044;2023-10-31T10:42:45;8.88;;;6.18;;
48911;SDS011;34722;52.108;5.044;2023-10-31T10:45:24;10.68;;;6.32;;
48911;SDS011;34722;52.108;5.044;2023-10-31T10:47:53;10.57;;;5.70;;
48911;SDS011;34722;52.108;5.044;2023-10-31T10:50:25;11.50;;;4.70;;
48911;SDS011;34722;52.108;5.044;2023-10-31T10:55:28;8.20;;;5.63;;
48911;SDS011;34722;52.108;5.044;2023-10-31T10:58:08;9.63;;;4.85;;
48911;SDS011;34722;52.108;5.044;2023-10-31T11:00:39;9.00;;;4.93;;
48911;SDS011;34722;52.108;5.044;2023-10-31T11:03:06;8.13;;;4.88;;
48911;SDS011;34722;52.108;5.044;2023-10-31T11:05:35;6.32;;;4.43;;
48911;SDS011;34722;52.108;5.044;2023-10-31T11:08:01;11.25;;;4.95;;
48911;SDS011;34722;52.108;5.044;2023-10-31T11:10:31;10.70;;;5.22;;
48911;SDS011;34722;52.108;5.044;2023-10-31T11:13:00;10.18;;;4.38;;
48911;SDS011;34722;52.108;5.044;2023-10-31T11:15:26;7.30;;;3.95;;
48911;SDS011;34722;52.108;5.044;2023-10-31T11:17:53;7.95;;;4.80;;
48911;SDS011;34722;52.108;5.044;2023-10-31T11:20:45;12.07;;;5.18;;
48911;SDS011;34722;52.108;5.044;2023-10-31T11:25:46;12.40;;;5.38;;
48911;SDS011;34722;52.108;5.044;2023-10-31T11:28:15;12.30;;;6.43;;
48911;SDS011;34722;52.108;5.044;2023-10-31T11:30:48;13.75;;;7.00;;
48911;SDS011;34722;52.108;5.044;2023-10-31T11:33:15;14.75;;;8.25;;
48911;SDS011;34722;52.108;5.044;2023-10-31T11:35:48;14.27;;;7.72;;
48911;SDS011;34722;52.108;5.044;2023-10-31T11:38:16;14.32;;;7.75;;
48911;SDS011;34722;52.108;5.044;2023-10-31T11:46:17;13.68;;;8.98;;
48911;SDS011;34722;52.108;5.044;2023-10-31T11:48:53;13.57;;;9.57;;
48911;SDS011;34722;52.108;5.044;2023-10-31T11:51:25;14.55;;;10.48;;
48911;SDS011;34722;52.108;5.044;2023-10-31T11:53:55;17.33;;;10.10;;
48911;SDS011;34722;52.108;5.044;2023-10-31T11:56:21;20.67;;;13.55;;
48911;SDS011;34722;52.108;5.044;2023-10-31T11:58:55;19.58;;;14.18;;
48911;SDS011;34722;52.108;5.044;2023-10-31T12:01:22;21.58;;;14.82;;
48911;SDS011;34722;52.108;5.044;2023-10-31T12:03:51;23.00;;;15.27;;
48911;SDS011;34722;52.108;5.044;2023-10-31T12:06:22;29.20;;;17.20;;
48911;SDS011;34722;52.108;5.044;2023-10-31T12:08:48;26.17;;;15.90;;
48911;SDS011;34722;52.108;5.044;2023-10-31T12:11:15;27.58;;;15.52;;
48911;SDS011;34722;52.108;5.044;2023-10-31T12:13:51;29.92;;;15.70;;
48911;SDS011;34722;52.108;5.044;2023-10-31T12:16:26;28.00;;;15.38;;
48911;SDS011;34722;52.108;5.044;2023-10-31T12:19:01;29.40;;;16.48;;
48911;SDS011;34722;52.108;5.044;2023-10-31T12:24:05;33.03;;;15.30;;
48911;SDS011;34722;52.108;5.044;2023-10-31T12:26:33;28.50;;;16.45;;
48911;SDS011;34722;52.108;5.044;2023-10-31T12:29:13;22.33;;;15.27;;
48911;SDS011;34722;52.108;5.044;2023-10-31T12:31:55;31.27;;;15.85;;
48911;SDS011;34722;52.108;5.044;2023-10-31T12:34:23;29.52;;;14.45;;
48911;SDS011;34722;52.108;5.044;2023-10-31T12:36:53;31.83;;;16.33;;
48911;SDS011;34722;52.108;5.044;2023-10-31T12:39:26;28.23;;;16.80;;
48911;SDS011;34722;52.108;5.044;2023-10-31T12:41:54;25.17;;;16.45;;
48911;SDS011;34722;52.108;5.044;2023-10-31T12:44:24;26.45;;;16.27;;
48911;SDS011;34722;52.108;5.044;2023-10-31T12:47:17;23.55;;;14.93;;
48911;SDS011;34722;52.108;5.044;2023-10-31T12:49:47;32.05;;;16.75;;
48911;SDS011;34722;52.108;5.044;2023-10-31T12:55:25;24.83;;;13.77;;
48911;SDS011;34722;52.108;5.044;2023-10-31T12:57:55;23.15;;;13.48;;
48911;SDS011;34722;52.108;5.044;2023-10-31T13:00:42;18.35;;;12.70;;
48911;SDS011;34722;52.108;5.044;2023-10-31T13:03:12;21.65;;;13.95;;
48911;SDS011;34722;52.108;5.044;2023-10-31T13:05:40;23.20;;;13.70;;
48911;SDS011;34722;52.108;5.044;2023-10-31T13:08:13;23.23;;;13.90;;
48911;SDS011;34722;52.108;5.044;2023-10-31T13:10:43;26.75;;;14.40;;
48911;SDS011;34722;52.108;5.044;2023-10-31T13:15:48;31.77;;;16.52;;
48911;SDS011;34722;52.108;5.044;2023-10-31T13:18:25;22.05;;;13.68;;
48911;SDS011;34722;52.108;5.044;2023-10-31T13:21:01;25.13;;;15.20;;
48911;SDS011;34722;52.108;5.044;2023-10-31T13:23:30;26.90;;;14.40;;
48911;SDS011;34722;52.108;5.044;2023-10-31T13:26:03;30.38;;;17.00;;
48911;SDS011;34722;52.108;5.044;2023-10-31T13:28:29;27.25;;;15.75;;
48911;SDS011;34722;52.108;5.044;2023-10-31T13:30:56;29.35;;;16.48;;
48911;SDS011;34722;52.108;5.044;2023-10-31T13:33:24;32.78;;;19.08;;
48911;SDS011;34722;52.108;5.044;2023-10-31T13:35:55;43.33;;;24.55;;
48911;SDS011;34722;52.108;5.044;2023-10-31T13:38:27;40.53;;;23.45;;
48911;SDS011;34722;52.108;5.044;2023-10-31T13:40:55;36.92;;;22.88;;
48911;SDS011;34722;52.108;5.044;2023-10-31T13:43:21;45.00;;;24.90;;
48911;SDS011;34722;52.108;5.044;2023-10-31T13:45:50;42.22;;;22.42;;
48911;SDS011;34722;52.108;5.044;2023-10-31T13:48:22;41.60;;;23.13;;
48911;SDS011;34722;52.108;5.044;2023-10-31T13:50:51;43.40;;;23.65;;
48911;SDS011;34722;52.108;5.044;2023-10-31T13:53:20;44.13;;;24.83;;
48911;SDS011;34722;52.108;5.044;2023-10-31T13:55:55;43.05;;;25.20;;
48911;SDS011;34722;52.108;5.044;2023-10-31T13:58:24;41.65;;;24.15;;
48911;SDS011;34722;52.108;5.044;2023-10-31T14:00:50;43.33;;;23.92;;
48911;SDS011;34722;52.108;5.044;2023-10-31T14:03:38;47.63;;;26.60;;
48911;SDS011;34722;52.108;5.044;2023-10-31T14:06:15;44.65;;;25.02;;
48911;SDS011;34722;52.108;5.044;2023-10-31T14:08:52;43.65;;;24.80;;
48911;SDS011;34722;52.108;5.044;2023-10-31T14:11:24;39.28;;;23.83;;
48911;SDS011;34722;52.108;5.044;2023-10-31T14:13:50;40.72;;;24.27;;
48911;SDS011;34722;52.108;5.044;2023-10-31T14:16:44;36.50;;;20.13;;
48911;SDS011;34722;52.108;5.044;2023-10-31T14:19:39;33.33;;;20.15;;
48911;SDS011;34722;52.108;5.044;2023-10-31T14:22:15;35.60;;;20.67;;
48911;SDS011;34722;52.108;5.044;2023-10-31T14:24:41;34.70;;;19.63;;
48911;SDS011;34722;52.108;5.044;2023-10-31T14:27:12;37.75;;;21.00;;
48911;SDS011;34722;52.108;5.044;2023-10-31T14:29:42;42.10;;;21.58;;
48911;SDS011;34722;52.108;5.044;2023-10-31T14:33:09;35.15;;;21.60;;
48911;SDS011;34722;52.108;5.044;2023-10-31T16:30:47;36.40;;;19.25;;
48911;SDS011;34722;52.108;5.044;2023-10-31T16:33:13;35.25;;;20.77;;
48911;SDS011;34722;52.108;5.044;2023-10-31T16:35:41;33.97;;;19.92;;
48911;SDS011;34722;52.108;5.044;2023-10-31T16:38:06;39.28;;;19.52;;
48911;SDS011;34722;52.108;5.044;2023-10-31T16:40:32;33.75;;;19.25;;
48911;SDS011;34722;52.108;5.044;2023-10-31T16:42:58;38.42;;;20.25;;
48911;SDS011;34722;52.108;5.044;2023-10-31T16:45:23;34.53;;;18.80;;
48911;SDS011;34722;52.108;5.044;2023-10-31T16:47:52;37.97;;;20.63;;
48911;SDS011;34722;52.108;5.044;2023-10-31T16:50:38;41.45;;;22.05;;
48911;SDS011;34722;52.108;5.044;2023-10-31T16:53:04;40.47;;;20.75;;
48911;SDS011;34722;52.108;5.044;2023-10-31T16:55:30;34.50;;;19.92;;
48911;SDS011;34722;52.108;5.044;2023-10-31T16:57:56;39.13;;;20.85;;
48911;SDS011;34722;52.108;5.044;2023-10-31T17:00:25;39.03;;;20.33;;
48911;SDS011;34722;52.108;5.044;2023-10-31T17:02:50;39.33;;;20.52;;
48911;SDS011;34722;52.108;5.044;2023-10-31T17:05:16;38.97;;;20.25;;
48911;SDS011;34722;52.108;5.044;2023-10-31T17:07:42;38.55;;;21.48;;
48911;SDS011;34722;52.108;5.044;2023-10-31T17:10:20;44.60;;;21.92;;
48911;SDS011;34722;52.108;5.044;2023-10-31T17:13:01;42.00;;;23.63;;
48911;SDS011;34722;52.108;5.044;2023-10-31T17:15:28;47.25;;;22.05;;
48911;SDS011;34722;52.108;5.044;2023-10-31T17:17:57;45.80;;;23.40;;
48911;SDS011;34722;52.108;5.044;2023-10-31T17:20:28;44.90;;;23.67;;
48911;SDS011;34722;52.108;5.044;2023-10-31T17:22:53;48.65;;;25.38;;
48911;SDS011;34722;52.108;5.044;2023-10-31T17:25:22;51.97;;;24.45;;
48911;SDS011;34722;52.108;5.044;2023-10-31T17:27:50;53.17;;;24.10;;
48911;SDS011;34722;52.108;5.044;2023-10-31T17:30:24;46.80;;;23.10;;
48911;SDS011;34722;52.108;5.044;2023-10-31T17:32:50;47.83;;;24.02;;
48911;SDS011;34722;52.108;5.044;2023-10-31T17:35:17;46.05;;;23.05;;
48911;SDS011;34722;52.108;5.044;2023-10-31T17:37:49;47.72;;;24.45;;
48911;SDS011;34722;52.108;5.044;2023-10-31T17:40:15;50.22;;;23.13;;
48911;SDS011;34722;52.108;5.044;2023-10-31T17:42:41;45.20;;;22.23;;
48911;SDS011;34722;52.108;5.044;2023-10-31T17:45:10;45.05;;;23.55;;
48911;SDS011;34722;52.108;5.044;2023-10-31T17:47:38;47.42;;;22.70;;
48911;SDS011;34722;52.108;5.044;2023-10-31T17:50:07;49.20;;;23.10;;
48911;SDS011;34722;52.108;5.044;2023-10-31T17:52:34;47.65;;;23.73;;
48911;SDS011;34722;52.108;5.044;2023-10-31T17:55:00;51.78;;;24.63;;
48911;SDS011;34722;52.108;5.044;2023-10-31T17:57:35;52.63;;;24.65;;
48911;SDS011;34722;52.108;5.044;2023-10-31T18:00:01;53.05;;;25.85;;
48911;SDS011;34722;52.108;5.044;2023-10-31T18:02:30;49.08;;;23.50;;
48911;SDS011;34722;52.108;5.044;2023-10-31T18:04:56;54.60;;;24.52;;
48911;SDS011;34722;52.108;5.044;2023-10-31T18:07:21;57.03;;;26.05;;
48911;SDS011;34722;52.108;5.044;2023-10-31T18:09:47;60.92;;;26.42;;
48911;SDS011;34722;52.108;5.044;2023-10-31T18:12:14;51.45;;;24.63;;
48911;SDS011;34722;52.108;5.044;2023-10-31T18:17:23;55.40;;;26.05;;
48911;SDS011;34722;52.108;5.044;2023-10-31T18:19:49;60.15;;;26.95;;
48911;SDS011;34722;52.108;5.044;2023-10-31T18:22:15;53.17;;;25.35;;
48911;SDS011;34722;52.108;5.044;2023-10-31T18:27:11;52.55;;;25.17;;
48911;SDS011;34722;52.108;5.044;2023-10-31T18:29:37;56.10;;;25.70;;
48911;SDS011;34722;52.108;5.044;2023-10-31T18:32:10;54.75;;;25.52;;